sensor_id;sensor_type;location;lat;lon;timestamp;temperature;humidity
25811;DHT22;13645;52.460;13.910;2023-02-01T00:00:28;4.10;99.90
25811;DHT22;13645;52.460;13.910;2023-02-01T00:02:54;4.10;99.90
25811;DHT22;13645;52.460;13.910;2023-02-01T00:05:21;4.10;99.90
25811;DHT22;13645;52.460;13.910;2023-02-01T00:07:48;4.10;99.90
25811;DHT22;13645;52.460;13.910;2023-02-01T00:10:15;4.10;99.90
25811;DHT22;13645;52.460;13.910;2023-02-01T00:12:43;4.10;99.90
25811;DHT22;13645;52.460;13.910;2023-02-01T00:15:10;4.20;99.90
25811;DHT22;13645;52.460;13.910;2023-02-01T00:17:37;4.20;99.90
25811;DHT22;13645;52.460;13.910;2023-02-01T00:20:04;4.20;99.90
25811;DHT22;13645;52.460;13.910;2023-02-01T00:22:31;4.20;99.90
25811;DHT22;13645;52.460;13.910;2023-02-01T00:24:58;4.20;99.90
25811;DHT22;13645;52.460;13.910;2023-02-01T00:27:24;4.20;99.90
25811;DHT22;13645;52.460;13.910;2023-02-01T00:29:51;4.30;99.90
25811;DHT22;13645;52.460;13.910;2023-02-01T00:32:20;4.30;99.90
25811;DHT22;13645;52.460;13.910;2023-02-01T00:34:47;4.30;99.90
25811;DHT22;13645;52.460;13.910;2023-02-01T00:37:13;4.30;99.90
25811;DHT22;13645;52.460;13.910;2023-02-01T00:39:40;4.40;99.90
25811;DHT22;13645;52.460;13.910;2023-02-01T00:42:07;4.30;99.90
25811;DHT22;13645;52.460;13.910;2023-02-01T00:44:34;4.30;99.90
25811;DHT22;13645;52.460;13.910;2023-02-01T00:47:01;4.30;99.90
25811;DHT22;13645;52.460;13.910;2023-02-01T00:49:28;4.30;99.90
25811;DHT22;13645;52.460;13.910;2023-02-01T00:51:55;4.30;99.90
25811;DHT22;13645;52.460;13.910;2023-02-01T00:54:22;4.20;99.90
25811;DHT22;13645;52.460;13.910;2023-02-01T00:56:49;4.20;99.90
25811;DHT22;13645;52.460;13.910;2023-02-01T00:59:16;4.20;99.90
25811;DHT22;13645;52.460;13.910;2023-02-01T01:01:43;4.20;99.90
25811;DHT22;13645;52.460;13.910;2023-02-01T01:04:10;4.20;99.90
25811;DHT22;13645;52.460;13.910;2023-02-01T01:06:36;4.10;99.90
25811;DHT22;13645;52.460;13.910;2023-02-01T01:09:05;4.20;99.90
25811;DHT22;13645;52.460;13.910;2023-02-01T01:11:36;4.20;99.90
25811;DHT22;13645;52.460;13.910;2023-02-01T01:14:04;4.20;99.90
25811;DHT22;13645;52.460;13.910;2023-02-01T01:16:32;4.20;99.90
25811;DHT22;13645;52.460;13.910;2023-02-01T01:19:00;4.30;99.90
25811;DHT22;13645;52.460;13.910;2023-02-01T01:21:27;4.30;99.90
25811;DHT22;13645;52.460;13.910;2023-02-01T01:23:54;4.40;99.90
25811;DHT22;13645;52.460;13.910;2023-02-01T01:26:24;4.50;99.90
25811;DHT22;13645;52.460;13.910;2023-02-01T01:28:52;4.50;99.90
25811;DHT22;13645;52.460;13.910;2023-02-01T01:31:20;4.50;99.90
25811;DHT22;13645;52.460;13.910;2023-02-01T01:33:52;4.50;99.90
25811;DHT22;13645;52.460;13.910;2023-02-01T01:36:19;4.50;99.90
25811;DHT22;13645;52.460;13.910;2023-02-01T01:38:46;4.50;99.90
25811;DHT22;13645;52.460;13.910;2023-02-01T01:41:16;4.50;99.90
25811;DHT22;13645;52.460;13.910;2023-02-01T01:43:56;4.50;99.90
25811;DHT22;13645;52.460;13.910;2023-02-01T01:46:25;4.50;99.90
25811;DHT22;13645;52.460;13.910;2023-02-01T01:51:24;4.40;99.90
25811;DHT22;13645;52.460;13.910;2023-02-01T01:53:58;4.40;99.90
25811;DHT22;13645;52.460;13.910;2023-02-01T01:56:27;4.50;99.90
25811;DHT22;13645;52.460;13.910;2023-02-01T01:58:54;4.40;99.90
25811;DHT22;13645;52.460;13.910;2023-02-01T02:01:21;4.40;99.90
25811;DHT22;13645;52.460;13.910;2023-02-01T02:03:48;4.50;99.90
25811;DHT22;13645;52.460;13.910;2023-02-01T02:06:42;4.40;99.90
25811;DHT22;13645;52.460;13.910;2023-02-01T02:09:07;4.40;99.90
25811;DHT22;13645;52.460;13.910;2023-02-01T02:11:33;4.40;99.90
25811;DHT22;13645;52.460;13.910;2023-02-01T02:14:01;4.40;99.90
25811;DHT22;13645;52.460;13.910;2023-02-01T02:16:40;4.30;99.90
25811;DHT22;13645;52.460;13.910;2023-02-01T02:30:14;4.50;99.90
25811;DHT22;13645;52.460;13.910;2023-02-01T02:32:55;4.50;99.90
25811;DHT22;13645;52.460;13.910;2023-02-01T02:38:26;4.50;99.90
25811;DHT22;13645;52.460;13.910;2023-02-01T02:41:09;4.60;99.90
25811;DHT22;13645;52.460;13.910;2023-02-01T02:43:44;4.50;99.90
25811;DHT22;13645;52.460;13.910;2023-02-01T02:46:37;4.50;99.90
25811;DHT22;13645;52.460;13.910;2023-02-01T02:52:45;4.50;99.90
25811;DHT22;13645;52.460;13.910;2023-02-01T02:55:33;4.50;99.90
25811;DHT22;13645;52.460;13.910;2023-02-01T02:58:03;4.40;99.90
25811;DHT22;13645;52.460;13.910;2023-02-01T03:00:50;4.40;99.90
25811;DHT22;13645;52.460;13.910;2023-02-01T03:03:38;4.40;99.90
25811;DHT22;13645;52.460;13.910;2023-02-01T03:06:24;4.40;99.90
25811;DHT22;13645;52.460;13.910;2023-02-01T03:08:52;4.40;99.90
25811;DHT22;13645;52.460;13.910;2023-02-01T03:11:20;4.50;99.90
25811;DHT22;13645;52.460;13.910;2023-02-01T03:13:58;4.50;99.90
25811;DHT22;13645;52.460;13.910;2023-02-01T03:16:33;4.50;99.90
25811;DHT22;13645;52.460;13.910;2023-02-01T03:19:08;4.50;99.90
25811;DHT22;13645;52.460;13.910;2023-02-01T03:24:39;4.50;99.90
25811;DHT22;13645;52.460;13.910;2023-02-01T03:27:34;4.50;99.90
25811;DHT22;13645;52.460;13.910;2023-02-01T03:30:11;4.50;99.90
25811;DHT22;13645;52.460;13.910;2023-02-01T03:32:48;4.50;99.90
25811;DHT22;13645;52.460;13.910;2023-02-01T03:35:50;4.50;99.90
25811;DHT22;13645;52.460;13.910;2023-02-01T03:47:00;4.50;99.90
25811;DHT22;13645;52.460;13.910;2023-02-01T03:49:35;4.50;99.90
25811;DHT22;13645;52.460;13.910;2023-02-01T03:52:06;4.50;99.90
25811;DHT22;13645;52.460;13.910;2023-02-01T03:54:36;4.50;99.90
25811;DHT22;13645;52.460;13.910;2023-02-01T03:57:17;4.50;99.90
25811;DHT22;13645;52.460;13.910;2023-02-01T03:59:47;4.50;99.90
25811;DHT22;13645;52.460;13.910;2023-02-01T04:02:13;4.50;99.90
25811;DHT22;13645;52.460;13.910;2023-02-01T04:04:40;4.50;99.90
25811;DHT22;13645;52.460;13.910;2023-02-01T04:07:07;4.60;99.90
25811;DHT22;13645;52.460;13.910;2023-02-01T04:09:34;4.50;99.90
25811;DHT22;13645;52.460;13.910;2023-02-01T04:12:00;4.50;99.90
25811;DHT22;13645;52.460;13.910;2023-02-01T04:14:27;4.50;99.90
25811;DHT22;13645;52.460;13.910;2023-02-01T04:16:54;4.50;99.90
25811;DHT22;13645;52.460;13.910;2023-02-01T04:19:20;4.60;99.90
25811;DHT22;13645;52.460;13.910;2023-02-01T04:21:47;4.60;99.90
25811;DHT22;13645;52.460;13.910;2023-02-01T04:24:14;4.60;99.90
25811;DHT22;13645;52.460;13.910;2023-02-01T04:26:41;4.50;99.90
25811;DHT22;13645;52.460;13.910;2023-02-01T04:29:09;4.60;99.90
25811;DHT22;13645;52.460;13.910;2023-02-01T04:31:36;4.60;99.90
25811;DHT22;13645;52.460;13.910;2023-02-01T04:34:03;4.60;99.90
25811;DHT22;13645;52.460;13.910;2023-02-01T04:36:30;4.60;99.90
25811;DHT22;13645;52.460;13.910;2023-02-01T04:38:56;4.70;99.90
25811;DHT22;13645;52.460;13.910;2023-02-01T04:41:23;4.70;99.90
25811;DHT22;13645;52.460;13.910;2023-02-01T04:43:50;4.80;99.90
25811;DHT22;13645;52.460;13.910;2023-02-01T04:46:19;4.80;99.90
25811;DHT22;13645;52.460;13.910;2023-02-01T04:48:45;4.80;99.90
25811;DHT22;13645;52.460;13.910;2023-02-01T04:51:12;4.80;99.90
25811;DHT22;13645;52.460;13.910;2023-02-01T04:53:39;4.80;99.90
25811;DHT22;13645;52.460;13.910;2023-02-01T04:56:06;4.90;99.90
25811;DHT22;13645;52.460;13.910;2023-02-01T04:58:33;4.90;99.90
25811;DHT22;13645;52.460;13.910;2023-02-01T05:01:03;4.80;99.90
25811;DHT22;13645;52.460;13.910;2023-02-01T05:03:34;4.80;99.90
25811;DHT22;13645;52.460;13.910;2023-02-01T05:06:01;4.90;99.90
25811;DHT22;13645;52.460;13.910;2023-02-01T05:08:31;4.90;99.90
25811;DHT22;13645;52.460;13.910;2023-02-01T05:10:58;4.80;99.90
25811;DHT22;13645;52.460;13.910;2023-02-01T05:13:25;4.90;99.90
25811;DHT22;13645;52.460;13.910;2023-02-01T05:16:10;4.90;99.90
25811;DHT22;13645;52.460;13.910;2023-02-01T05:18:37;4.90;99.90
25811;DHT22;13645;52.460;13.910;2023-02-01T05:21:04;4.90;99.90
25811;DHT22;13645;52.460;13.910;2023-02-01T05:23:31;4.90;99.90
25811;DHT22;13645;52.460;13.910;2023-02-01T05:25:59;5.00;99.90
25811;DHT22;13645;52.460;13.910;2023-02-01T05:28:27;5.00;99.90
25811;DHT22;13645;52.460;13.910;2023-02-01T05:30:54;5.00;99.90
25811;DHT22;13645;52.460;13.910;2023-02-01T05:33:22;5.00;99.90
25811;DHT22;13645;52.460;13.910;2023-02-01T05:35:49;5.00;99.90
25811;DHT22;13645;52.460;13.910;2023-02-01T05:38:17;5.00;99.90
25811;DHT22;13645;52.460;13.910;2023-02-01T05:40:43;5.00;99.90
25811;DHT22;13645;52.460;13.910;2023-02-01T05:43:16;5.00;99.90
25811;DHT22;13645;52.460;13.910;2023-02-01T05:45:42;5.10;99.90
25811;DHT22;13645;52.460;13.910;2023-02-01T05:48:09;5.10;99.90
25811;DHT22;13645;52.460;13.910;2023-02-01T05:50:36;5.10;99.90
25811;DHT22;13645;52.460;13.910;2023-02-01T05:53:02;5.10;99.90
25811;DHT22;13645;52.460;13.910;2023-02-01T05:55:29;5.20;99.90
25811;DHT22;13645;52.460;13.910;2023-02-01T05:57:56;5.20;99.90
25811;DHT22;13645;52.460;13.910;2023-02-01T06:00:23;5.20;99.90
25811;DHT22;13645;52.460;13.910;2023-02-01T06:02:50;5.20;99.90
25811;DHT22;13645;52.460;13.910;2023-02-01T06:05:17;5.10;99.90
25811;DHT22;13645;52.460;13.910;2023-02-01T06:07:44;5.20;99.90
25811;DHT22;13645;52.460;13.910;2023-02-01T06:10:10;5.20;99.90
25811;DHT22;13645;52.460;13.910;2023-02-01T06:12:37;5.20;99.90
25811;DHT22;13645;52.460;13.910;2023-02-01T06:15:04;5.20;99.90
25811;DHT22;13645;52.460;13.910;2023-02-01T06:17:31;5.20;99.90
25811;DHT22;13645;52.460;13.910;2023-02-01T06:19:58;5.10;99.90
25811;DHT22;13645;52.460;13.910;2023-02-01T06:22:25;5.20;99.90
25811;DHT22;13645;52.460;13.910;2023-02-01T06:24:51;5.10;99.90
25811;DHT22;13645;52.460;13.910;2023-02-01T06:27:18;5.10;99.90
25811;DHT22;13645;52.460;13.910;2023-02-01T06:29:45;5.10;99.90
25811;DHT22;13645;52.460;13.910;2023-02-01T06:32:11;5.00;99.90
25811;DHT22;13645;52.460;13.910;2023-02-01T06:34:38;5.00;99.90
25811;DHT22;13645;52.460;13.910;2023-02-01T06:37:05;5.00;99.90
25811;DHT22;13645;52.460;13.910;2023-02-01T06:39:32;5.00;99.90
25811;DHT22;13645;52.460;13.910;2023-02-01T06:41:59;5.00;99.90
25811;DHT22;13645;52.460;13.910;2023-02-01T06:44:26;5.00;99.90
25811;DHT22;13645;52.460;13.910;2023-02-01T06:46:52;5.00;99.90
25811;DHT22;13645;52.460;13.910;2023-02-01T06:49:19;4.90;99.90
25811;DHT22;13645;52.460;13.910;2023-02-01T06:51:46;4.90;99.90
25811;DHT22;13645;52.460;13.910;2023-02-01T06:54:13;4.80;99.90
25811;DHT22;13645;52.460;13.910;2023-02-01T06:56:40;4.80;99.90
25811;DHT22;13645;52.460;13.910;2023-02-01T06:59:07;4.70;99.90
25811;DHT22;13645;52.460;13.910;2023-02-01T07:01:34;4.70;99.90
25811;DHT22;13645;52.460;13.910;2023-02-01T07:04:01;4.70;99.90
25811;DHT22;13645;52.460;13.910;2023-02-01T07:06:28;4.70;99.90
25811;DHT22;13645;52.460;13.910;2023-02-01T07:08:55;4.60;99.90
25811;DHT22;13645;52.460;13.910;2023-02-01T07:11:24;4.60;99.90
25811;DHT22;13645;52.460;13.910;2023-02-01T07:13:53;4.60;99.90
25811;DHT22;13645;52.460;13.910;2023-02-01T07:16:20;4.60;99.90
25811;DHT22;13645;52.460;13.910;2023-02-01T07:18:49;4.50;99.90
25811;DHT22;13645;52.460;13.910;2023-02-01T07:21:16;4.60;99.90
25811;DHT22;13645;52.460;13.910;2023-02-01T07:23:42;4.50;99.90
25811;DHT22;13645;52.460;13.910;2023-02-01T07:26:10;4.60;99.90
25811;DHT22;13645;52.460;13.910;2023-02-01T07:28:38;4.50;99.90
25811;DHT22;13645;52.460;13.910;2023-02-01T07:31:07;4.50;99.90
25811;DHT22;13645;52.460;13.910;2023-02-01T07:33:34;4.50;99.90
25811;DHT22;13645;52.460;13.910;2023-02-01T07:36:06;4.50;99.90
25811;DHT22;13645;52.460;13.910;2023-02-01T07:38:33;4.50;99.90
25811;DHT22;13645;52.460;13.910;2023-02-01T07:41:01;4.50;99.90
25811;DHT22;13645;52.460;13.910;2023-02-01T07:43:29;4.50;99.90
25811;DHT22;13645;52.460;13.910;2023-02-01T07:45:56;4.50;99.90
25811;DHT22;13645;52.460;13.910;2023-02-01T07:48:24;4.50;99.90
25811;DHT22;13645;52.460;13.910;2023-02-01T07:50:59;4.50;99.90
25811;DHT22;13645;52.460;13.910;2023-02-01T07:53:28;4.40;99.90
25811;DHT22;13645;52.460;13.910;2023-02-01T07:55:55;4.40;99.90
25811;DHT22;13645;52.460;13.910;2023-02-01T07:58:23;4.50;99.90
25811;DHT22;13645;52.460;13.910;2023-02-01T08:00:50;4.50;99.90
25811;DHT22;13645;52.460;13.910;2023-02-01T08:03:35;4.60;99.90
25811;DHT22;13645;52.460;13.910;2023-02-01T08:06:02;4.60;99.90
25811;DHT22;13645;52.460;13.910;2023-02-01T08:08:29;4.60;99.90
25811;DHT22;13645;52.460;13.910;2023-02-01T08:11:01;4.70;99.90
25811;DHT22;13645;52.460;13.910;2023-02-01T08:13:28;4.70;99.90
25811;DHT22;13645;52.460;13.910;2023-02-01T08:16:03;4.70;99.90
25811;DHT22;13645;52.460;13.910;2023-02-01T08:18:30;4.70;99.90
25811;DHT22;13645;52.460;13.910;2023-02-01T08:23:36;4.60;99.90
25811;DHT22;13645;52.460;13.910;2023-02-01T08:28:31;4.60;99.90
25811;DHT22;13645;52.460;13.910;2023-02-01T08:30:58;4.60;99.90
25811;DHT22;13645;52.460;13.910;2023-02-01T08:33:25;4.50;99.90
25811;DHT22;13645;52.460;13.910;2023-02-01T08:35:52;4.40;99.90
25811;DHT22;13645;52.460;13.910;2023-02-01T08:38:18;4.30;99.90
25811;DHT22;13645;52.460;13.910;2023-02-01T08:40:45;4.20;99.90
25811;DHT22;13645;52.460;13.910;2023-02-01T08:43:12;4.20;99.90
25811;DHT22;13645;52.460;13.910;2023-02-01T08:45:40;4.20;99.90
25811;DHT22;13645;52.460;13.910;2023-02-01T08:48:07;4.10;99.90
25811;DHT22;13645;52.460;13.910;2023-02-01T08:50:34;4.10;99.90
25811;DHT22;13645;52.460;13.910;2023-02-01T08:53:01;4.00;99.90
25811;DHT22;13645;52.460;13.910;2023-02-01T08:55:27;4.00;99.90
25811;DHT22;13645;52.460;13.910;2023-02-01T08:57:55;3.90;99.90
25811;DHT22;13645;52.460;13.910;2023-02-01T09:00:22;3.90;99.90
25811;DHT22;13645;52.460;13.910;2023-02-01T09:02:49;4.00;99.90
25811;DHT22;13645;52.460;13.910;2023-02-01T09:05:16;3.90;99.90
25811;DHT22;13645;52.460;13.910;2023-02-01T09:07:45;3.90;99.90
25811;DHT22;13645;52.460;13.910;2023-02-01T09:10:12;3.90;99.90
25811;DHT22;13645;52.460;13.910;2023-02-01T09:12:41;3.90;99.90
25811;DHT22;13645;52.460;13.910;2023-02-01T09:15:08;3.90;99.90
25811;DHT22;13645;52.460;13.910;2023-02-01T09:17:35;3.80;99.90
25811;DHT22;13645;52.460;13.910;2023-02-01T09:20:03;3.80;99.90
25811;DHT22;13645;52.460;13.910;2023-02-01T09:22:30;3.80;99.90
25811;DHT22;13645;52.460;13.910;2023-02-01T09:24:56;3.80;99.90
25811;DHT22;13645;52.460;13.910;2023-02-01T09:27:23;3.80;99.90
25811;DHT22;13645;52.460;13.910;2023-02-01T09:29:50;3.80;99.90
25811;DHT22;13645;52.460;13.910;2023-02-01T09:32:21;3.80;99.90
25811;DHT22;13645;52.460;13.910;2023-02-01T09:34:52;3.90;99.90
25811;DHT22;13645;52.460;13.910;2023-02-01T09:37:19;3.90;99.90
25811;DHT22;13645;52.460;13.910;2023-02-01T09:39:46;3.90;99.90
25811;DHT22;13645;52.460;13.910;2023-02-01T09:47:55;4.10;99.90
25811;DHT22;13645;52.460;13.910;2023-02-01T09:50:34;4.20;99.90
25811;DHT22;13645;52.460;13.910;2023-02-01T09:55:50;4.30;99.90
25811;DHT22;13645;52.460;13.910;2023-02-01T10:01:01;4.30;99.90
25811;DHT22;13645;52.460;13.910;2023-02-01T10:03:31;4.40;99.90
25811;DHT22;13645;52.460;13.910;2023-02-01T10:15:09;4.40;99.90
25811;DHT22;13645;52.460;13.910;2023-02-01T10:17:36;4.50;99.90
25811;DHT22;13645;52.460;13.910;2023-02-01T10:20:29;4.50;99.90
25811;DHT22;13645;52.460;13.910;2023-02-01T10:28:28;4.60;99.90
25811;DHT22;13645;52.460;13.910;2023-02-01T10:30:57;4.60;99.90
25811;DHT22;13645;52.460;13.910;2023-02-01T10:33:35;4.70;99.90
25811;DHT22;13645;52.460;13.910;2023-02-01T10:38:41;4.60;99.90
25811;DHT22;13645;52.460;13.910;2023-02-01T10:41:21;4.60;99.90
25811;DHT22;13645;52.460;13.910;2023-02-01T10:43:50;4.60;99.90
25811;DHT22;13645;52.460;13.910;2023-02-01T10:46:20;4.60;99.90
25811;DHT22;13645;52.460;13.910;2023-02-01T10:48:48;4.70;99.90
25811;DHT22;13645;52.460;13.910;2023-02-01T10:51:26;4.60;99.90
25811;DHT22;13645;52.460;13.910;2023-02-01T10:54:00;4.60;99.90
25811;DHT22;13645;52.460;13.910;2023-02-01T10:56:29;4.60;99.90
25811;DHT22;13645;52.460;13.910;2023-02-01T10:59:05;4.60;99.90
25811;DHT22;13645;52.460;13.910;2023-02-01T11:01:43;4.60;99.90
25811;DHT22;13645;52.460;13.910;2023-02-01T11:04:19;4.60;99.90
25811;DHT22;13645;52.460;13.910;2023-02-01T11:06:51;4.80;99.90
25811;DHT22;13645;52.460;13.910;2023-02-01T11:09:22;5.00;99.90
25811;DHT22;13645;52.460;13.910;2023-02-01T11:14:19;5.40;99.90
25811;DHT22;13645;52.460;13.910;2023-02-01T11:16:48;5.50;99.90
25811;DHT22;13645;52.460;13.910;2023-02-01T11:19:17;5.50;99.90
25811;DHT22;13645;52.460;13.910;2023-02-01T11:21:44;5.40;99.90
25811;DHT22;13645;52.460;13.910;2023-02-01T11:24:40;5.20;99.90
25811;DHT22;13645;52.460;13.910;2023-02-01T11:27:15;5.20;99.90
25811;DHT22;13645;52.460;13.910;2023-02-01T11:29:57;5.10;99.90
25811;DHT22;13645;52.460;13.910;2023-02-01T11:36:16;5.50;99.90
25811;DHT22;13645;52.460;13.910;2023-02-01T11:38:51;5.80;99.90
25811;DHT22;13645;52.460;13.910;2023-02-01T11:41:25;6.00;99.90
25811;DHT22;13645;52.460;13.910;2023-02-01T11:43:56;6.20;99.90
25811;DHT22;13645;52.460;13.910;2023-02-01T11:46:42;6.40;99.90
25811;DHT22;13645;52.460;13.910;2023-02-01T11:49:19;6.40;99.90
25811;DHT22;13645;52.460;13.910;2023-02-01T11:57:22;6.20;99.90
25811;DHT22;13645;52.460;13.910;2023-02-01T12:03:05;6.60;99.90
25811;DHT22;13645;52.460;13.910;2023-02-01T12:05:53;6.70;99.90
25811;DHT22;13645;52.460;13.910;2023-02-01T12:14:20;6.50;99.90
25811;DHT22;13645;52.460;13.910;2023-02-01T12:19:37;7.40;99.90
25811;DHT22;13645;52.460;13.910;2023-02-01T12:22:22;7.80;99.90
25811;DHT22;13645;52.460;13.910;2023-02-01T12:25:13;7.80;99.90
25811;DHT22;13645;52.460;13.910;2023-02-01T12:28:16;7.30;99.90
25811;DHT22;13645;52.460;13.910;2023-02-01T12:39:29;7.50;99.90
25811;DHT22;13645;52.460;13.910;2023-02-01T12:42:18;7.20;99.90
25811;DHT22;13645;52.460;13.910;2023-02-01T12:45:15;7.10;99.90
25811;DHT22;13645;52.460;13.910;2023-02-01T12:47:51;6.90;99.90
25811;DHT22;13645;52.460;13.910;2023-02-01T12:50:29;6.80;99.90
25811;DHT22;13645;52.460;13.910;2023-02-01T12:53:15;6.60;99.90
25811;DHT22;13645;52.460;13.910;2023-02-01T12:55:51;6.60;99.90
25811;DHT22;13645;52.460;13.910;2023-02-01T13:06:28;6.40;99.90
25811;DHT22;13645;52.460;13.910;2023-02-01T13:11:36;6.30;99.90
25811;DHT22;13645;52.460;13.910;2023-02-01T13:14:11;6.20;99.90
25811;DHT22;13645;52.460;13.910;2023-02-01T13:16:51;6.20;99.90
25811;DHT22;13645;52.460;13.910;2023-02-01T13:22:02;6.00;99.90
25811;DHT22;13645;52.460;13.910;2023-02-01T13:27:12;5.80;99.90
25811;DHT22;13645;52.460;13.910;2023-02-01T13:29:50;5.10;99.90
25811;DHT22;13645;52.460;13.910;2023-02-01T13:38:45;3.30;99.90
25811;DHT22;13645;52.460;13.910;2023-02-01T13:41:32;2.90;99.90
25811;DHT22;13645;52.460;13.910;2023-02-01T13:44:11;2.70;99.90
25811;DHT22;13645;52.460;13.910;2023-02-01T13:46:44;2.60;99.90
25811;DHT22;13645;52.460;13.910;2023-02-01T13:49:23;2.50;99.90
25811;DHT22;13645;52.460;13.910;2023-02-01T13:51:53;2.40;99.90
25811;DHT22;13645;52.460;13.910;2023-02-01T13:54:38;2.50;99.90
25811;DHT22;13645;52.460;13.910;2023-02-01T13:57:34;2.50;99.90
25811;DHT22;13645;52.460;13.910;2023-02-01T13:59:52;2.50;99.90
25811;DHT22;13645;52.460;13.910;2023-02-01T14:05:12;2.60;99.90
25811;DHT22;13645;52.460;13.910;2023-02-01T14:13:30;2.50;99.90
25811;DHT22;13645;52.460;13.910;2023-02-01T14:21:22;2.40;99.90
25811;DHT22;13645;52.460;13.910;2023-02-01T14:29:40;2.50;99.90
25811;DHT22;13645;52.460;13.910;2023-02-01T14:44:53;3.00;99.90
25811;DHT22;13645;52.460;13.910;2023-02-01T14:52:28;3.80;99.90
25811;DHT22;13645;52.460;13.910;2023-02-01T14:55:01;3.90;99.90
25811;DHT22;13645;52.460;13.910;2023-02-01T14:57:29;4.00;99.90
25811;DHT22;13645;52.460;13.910;2023-02-01T15:00:21;4.10;99.90
25811;DHT22;13645;52.460;13.910;2023-02-01T15:02:50;4.20;99.90
25811;DHT22;13645;52.460;13.910;2023-02-01T15:05:27;4.30;99.90
25811;DHT22;13645;52.460;13.910;2023-02-01T15:08:02;4.50;99.90
25811;DHT22;13645;52.460;13.910;2023-02-01T15:10:31;4.50;99.90
25811;DHT22;13645;52.460;13.910;2023-02-01T15:13:00;4.60;99.90
25811;DHT22;13645;52.460;13.910;2023-02-01T15:15:26;4.60;99.90
25811;DHT22;13645;52.460;13.910;2023-02-01T15:17:56;4.60;99.90
25811;DHT22;13645;52.460;13.910;2023-02-01T15:20:31;4.60;99.90
25811;DHT22;13645;52.460;13.910;2023-02-01T15:23:02;4.70;99.90
25811;DHT22;13645;52.460;13.910;2023-02-01T15:25:36;4.70;99.90
25811;DHT22;13645;52.460;13.910;2023-02-01T15:28:04;4.80;99.90
25811;DHT22;13645;52.460;13.910;2023-02-01T15:30:34;4.70;99.90
25811;DHT22;13645;52.460;13.910;2023-02-01T15:33:18;4.70;99.90
25811;DHT22;13645;52.460;13.910;2023-02-01T15:35:50;4.70;99.90
25811;DHT22;13645;52.460;13.910;2023-02-01T15:43:20;4.70;99.90
25811;DHT22;13645;52.460;13.910;2023-02-01T15:45:48;4.70;99.90
25811;DHT22;13645;52.460;13.910;2023-02-01T15:48:26;4.80;99.90
25811;DHT22;13645;52.460;13.910;2023-02-01T15:50:53;4.80;99.90
25811;DHT22;13645;52.460;13.910;2023-02-01T15:53:24;4.70;99.90
25811;DHT22;13645;52.460;13.910;2023-02-01T15:55:53;4.70;99.90
25811;DHT22;13645;52.460;13.910;2023-02-01T15:58:22;4.60;99.90
25811;DHT22;13645;52.460;13.910;2023-02-01T16:01:02;4.60;99.90
25811;DHT22;13645;52.460;13.910;2023-02-01T16:03:44;4.50;99.90
25811;DHT22;13645;52.460;13.910;2023-02-01T16:09:08;4.40;99.90
25811;DHT22;13645;52.460;13.910;2023-02-01T16:11:54;4.30;99.90
25811;DHT22;13645;52.460;13.910;2023-02-01T16:14:22;4.30;99.90
25811;DHT22;13645;52.460;13.910;2023-02-01T16:16:50;4.20;99.90
25811;DHT22;13645;52.460;13.910;2023-02-01T16:19:17;4.20;99.90
25811;DHT22;13645;52.460;13.910;2023-02-01T16:21:45;4.10;99.90
25811;DHT22;13645;52.460;13.910;2023-02-01T16:24:12;4.00;99.90
25811;DHT22;13645;52.460;13.910;2023-02-01T16:26:39;3.90;99.90
25811;DHT22;13645;52.460;13.910;2023-02-01T16:29:06;3.80;99.90
25811;DHT22;13645;52.460;13.910;2023-02-01T16:31:38;3.70;99.90
25811;DHT22;13645;52.460;13.910;2023-02-01T16:34:05;3.50;99.90
25811;DHT22;13645;52.460;13.910;2023-02-01T16:36:33;3.40;99.90
25811;DHT22;13645;52.460;13.910;2023-02-01T16:39:00;3.20;99.90
25811;DHT22;13645;52.460;13.910;2023-02-01T16:41:26;3.00;99.90
25811;DHT22;13645;52.460;13.910;2023-02-01T16:43:55;2.80;99.90
25811;DHT22;13645;52.460;13.910;2023-02-01T16:46:25;2.80;99.90
25811;DHT22;13645;52.460;13.910;2023-02-01T16:48:57;2.70;99.90
25811;DHT22;13645;52.460;13.910;2023-02-01T16:51:31;2.70;99.90
25811;DHT22;13645;52.460;13.910;2023-02-01T16:54:00;2.80;99.90
25811;DHT22;13645;52.460;13.910;2023-02-01T16:56:32;2.80;99.90
25811;DHT22;13645;52.460;13.910;2023-02-01T16:58:59;2.80;99.90
25811;DHT22;13645;52.460;13.910;2023-02-01T17:01:26;2.80;99.90
25811;DHT22;13645;52.460;13.910;2023-02-01T17:03:53;2.90;99.90
25811;DHT22;13645;52.460;13.910;2023-02-01T17:06:23;3.00;99.90
25811;DHT22;13645;52.460;13.910;2023-02-01T17:08:52;3.00;99.90
25811;DHT22;13645;52.460;13.910;2023-02-01T17:11:20;3.00;99.90
25811;DHT22;13645;52.460;13.910;2023-02-01T17:13:47;3.00;99.90
25811;DHT22;13645;52.460;13.910;2023-02-01T17:19:03;3.10;99.90
25811;DHT22;13645;52.460;13.910;2023-02-01T17:21:38;3.10;99.90
25811;DHT22;13645;52.460;13.910;2023-02-01T17:24:06;3.10;99.90
25811;DHT22;13645;52.460;13.910;2023-02-01T17:26:33;3.20;99.90
25811;DHT22;13645;52.460;13.910;2023-02-01T17:28:59;3.20;99.90
25811;DHT22;13645;52.460;13.910;2023-02-01T17:31:27;3.20;99.90
25811;DHT22;13645;52.460;13.910;2023-02-01T17:33:54;3.20;99.90
25811;DHT22;13645;52.460;13.910;2023-02-01T17:36:21;3.30;99.90
25811;DHT22;13645;52.460;13.910;2023-02-01T17:38:48;3.20;99.90
25811;DHT22;13645;52.460;13.910;2023-02-01T17:41:30;3.30;99.90
25811;DHT22;13645;52.460;13.910;2023-02-01T17:43:57;3.40;99.90
25811;DHT22;13645;52.460;13.910;2023-02-01T17:46:24;3.30;99.90
25811;DHT22;13645;52.460;13.910;2023-02-01T17:48:54;3.40;99.90
25811;DHT22;13645;52.460;13.910;2023-02-01T17:51:26;3.40;99.90
25811;DHT22;13645;52.460;13.910;2023-02-01T17:53:53;3.40;99.90
25811;DHT22;13645;52.460;13.910;2023-02-01T17:56:21;3.40;99.90
25811;DHT22;13645;52.460;13.910;2023-02-01T17:58:49;3.40;99.90
25811;DHT22;13645;52.460;13.910;2023-02-01T18:01:21;3.40;99.90
25811;DHT22;13645;52.460;13.910;2023-02-01T18:03:49;3.50;99.90
25811;DHT22;13645;52.460;13.910;2023-02-01T18:06:22;3.40;99.90
25811;DHT22;13645;52.460;13.910;2023-02-01T18:08:49;3.40;99.90
25811;DHT22;13645;52.460;13.910;2023-02-01T18:11:19;3.50;99.90
25811;DHT22;13645;52.460;13.910;2023-02-01T18:13:47;3.50;99.90
25811;DHT22;13645;52.460;13.910;2023-02-01T18:16:21;3.50;99.90
25811;DHT22;13645;52.460;13.910;2023-02-01T18:18:48;3.40;99.90
25811;DHT22;13645;52.460;13.910;2023-02-01T18:21:16;3.50;99.90
25811;DHT22;13645;52.460;13.910;2023-02-01T18:23:43;3.50;99.90
25811;DHT22;13645;52.460;13.910;2023-02-01T18:26:12;3.50;99.90
25811;DHT22;13645;52.460;13.910;2023-02-01T18:28:39;3.60;99.90
25811;DHT22;13645;52.460;13.910;2023-02-01T18:31:29;3.70;99.90
25811;DHT22;13645;52.460;13.910;2023-02-01T18:33:57;3.70;99.90
25811;DHT22;13645;52.460;13.910;2023-02-01T18:36:25;3.70;99.90
25811;DHT22;13645;52.460;13.910;2023-02-01T18:38:52;3.70;99.90